createdAt,value
2024-03-05T00:02:18.506Z,71.04
2024-03-05T00:04:46.559Z,71.74
2024-03-05T00:07:16.223Z,71.79
2024-03-05T00:09:42.966Z,71.32
2024-03-05T00:12:12.317Z,71.44
2024-03-05T00:14:39.077Z,71.46
2024-03-05T00:17:05.777Z,71.63
2024-03-05T00:19:32.491Z,71.88
2024-03-05T00:21:59.303Z,71.64
2024-03-05T00:24:26.030Z,71.58
2024-03-05T00:26:53.245Z,71.93
2024-03-05T00:29:19.908Z,72.03
2024-03-05T00:31:47.486Z,71.76
2024-03-05T00:34:15.136Z,72.03
2024-03-05T00:36:41.880Z,72.18
2024-03-05T00:39:08.692Z,72.26
2024-03-05T00:41:50.522Z,72.37
2024-03-05T00:44:17.536Z,72.57
2024-03-05T00:46:44.248Z,72.48
2024-03-05T00:49:13.729Z,72.51
2024-03-05T00:51:40.859Z,72.81
2024-03-05T00:54:08.565Z,72.79
2024-03-05T00:56:35.507Z,73.17
2024-03-05T00:59:02.201Z,73.26
2024-03-05T01:01:29.168Z,73.64
2024-03-05T01:03:56.019Z,73.16
2024-03-05T01:06:22.578Z,73.70
2024-03-05T01:08:49.228Z,73.63
2024-03-05T01:11:16.016Z,73.15
2024-03-05T01:13:42.831Z,73.93
2024-03-05T01:16:10.013Z,74.17
2024-03-05T01:18:37.395Z,73.94
2024-03-05T01:21:06.544Z,74.00
2024-03-05T01:23:33.658Z,74.15
2024-03-05T01:26:00.775Z,73.90
2024-03-05T01:28:28.706Z,74.13
2024-03-05T01:30:55.544Z,74.04
2024-03-05T01:33:23.375Z,74.40
2024-03-05T01:35:51.767Z,74.06
2024-03-05T01:38:18.460Z,74.63
2024-03-05T01:40:45.695Z,74.31
2024-03-05T01:43:12.647Z,74.74
2024-03-05T01:45:39.447Z,74.78
2024-03-05T01:48:06.335Z,74.52
2024-03-05T01:50:37.488Z,74.19
2024-03-05T01:53:07.468Z,74.38
2024-03-05T01:55:36.192Z,74.32
2024-03-05T01:58:04.433Z,74.75
2024-03-05T02:00:31.838Z,74.53
2024-03-05T02:02:59.052Z,74.53
2024-03-05T02:05:26.109Z,74.17
2024-03-05T02:07:55.881Z,74.27
2024-03-05T02:10:22.642Z,74.71
2024-03-05T02:12:49.309Z,74.93
2024-03-05T02:15:16.388Z,74.90
2024-03-05T02:17:48.901Z,75.12
2024-03-05T02:20:15.578Z,74.86
2024-03-05T02:22:42.884Z,74.87
2024-03-05T02:25:10.555Z,74.79
2024-03-05T02:27:42.030Z,75.11
2024-03-05T02:30:12.928Z,75.05
2024-03-05T02:32:41.552Z,74.87
2024-03-05T02:35:11.814Z,74.84
2024-03-05T02:37:39.450Z,74.99
2024-03-05T02:40:11.325Z,74.99
2024-03-05T02:42:38.116Z,75.45
2024-03-05T02:45:05.578Z,75.24
2024-03-05T02:47:35.133Z,75.39
2024-03-05T02:50:04.144Z,75.44
2024-03-05T02:52:31.686Z,75.49
2024-03-05T02:54:58.682Z,75.32
2024-03-05T02:57:25.448Z,75.56
2024-03-05T02:59:52.329Z,75.68
2024-03-05T03:02:20.869Z,75.57
2024-03-05T03:04:48.185Z,75.54
2024-03-05T03:07:14.894Z,75.40
2024-03-05T03:09:45.854Z,75.27
2024-03-05T03:12:14.445Z,75.45
2024-03-05T03:14:44.550Z,75.46
2024-03-05T03:17:11.737Z,75.25
2024-03-05T03:19:38.511Z,75.74
2024-03-05T03:22:05.332Z,75.64
2024-03-05T03:24:32.055Z,75.61
2024-03-05T03:26:58.829Z,75.41
2024-03-05T03:29:27.102Z,75.52
2024-03-05T03:31:55.921Z,75.47
2024-03-05T03:34:23.149Z,75.41
2024-03-05T03:36:49.882Z,75.48
2024-03-05T03:39:23.767Z,75.56
2024-03-05T03:41:56.687Z,75.95
2024-03-05T03:44:23.476Z,75.29
2024-03-05T03:46:51.012Z,75.52
2024-03-05T03:49:26.451Z,75.41
2024-03-05T03:51:54.080Z,75.61
2024-03-05T03:54:22.013Z,75.45
2024-03-05T03:56:49.192Z,75.40
2024-03-05T03:59:15.905Z,75.38
2024-03-05T04:01:47.070Z,75.66
2024-03-05T04:04:14.402Z,75.76
2024-03-05T04:06:46.292Z,75.39
2024-03-05T04:09:14.529Z,75.09
2024-03-05T04:11:42.085Z,74.71
2024-03-05T04:14:09.285Z,74.65
2024-03-05T04:16:40.137Z,75.40
2024-03-05T04:19:10.104Z,75.14
2024-03-05T04:21:41.646Z,75.58
2024-03-05T04:24:13.562Z,75.58
2024-03-05T04:26:41.775Z,75.00
2024-03-05T04:29:09.994Z,74.90
2024-03-05T04:31:44.648Z,74.50
2024-03-05T04:34:19.649Z,75.13
2024-03-05T04:36:46.305Z,75.36
2024-03-05T04:39:15.874Z,75.01
2024-03-05T04:41:45.691Z,74.96
2024-03-05T04:44:14.244Z,74.56
2024-03-05T04:46:41.449Z,75.09
2024-03-05T04:49:08.278Z,75.01
2024-03-05T04:51:35.509Z,75.07
2024-03-05T04:54:02.625Z,75.16
2024-03-05T04:56:29.235Z,75.69
2024-03-05T04:58:55.940Z,75.12
2024-03-05T05:01:22.881Z,75.28
2024-03-05T05:03:49.712Z,75.30
2024-03-05T05:06:16.476Z,75.36
2024-03-05T05:08:43.367Z,75.31
2024-03-05T05:11:10.245Z,75.53
2024-03-05T05:13:37.111Z,75.80
2024-03-05T05:16:05.647Z,75.55
2024-03-05T05:18:32.230Z,75.53
2024-03-05T05:20:58.887Z,75.97
2024-03-05T05:23:25.566Z,75.92
2024-03-05T05:25:53.412Z,75.80
2024-03-05T05:28:20.135Z,75.97
2024-03-05T05:30:46.841Z,75.66
2024-03-05T05:33:13.755Z,75.67
2024-03-05T05:35:40.635Z,75.99
2024-03-05T05:38:10.942Z,75.83
2024-03-05T05:40:37.561Z,76.12
2024-03-05T05:43:04.623Z,75.72
2024-03-05T05:45:31.583Z,75.94
2024-03-05T05:47:58.645Z,76.09
2024-03-05T05:50:34.693Z,75.65
2024-03-05T05:53:01.788Z,76.02
2024-03-05T05:55:29.193Z,76.11
2024-03-05T05:57:58.875Z,76.14
2024-03-05T06:00:39.850Z,75.80
2024-03-05T06:03:08.815Z,76.16
2024-03-05T06:05:38.872Z,76.00
2024-03-05T06:08:16.061Z,76.33
2024-03-05T06:10:43.803Z,76.31
2024-03-05T06:13:12.142Z,76.35
2024-03-05T06:15:39.530Z,76.44
2024-03-05T06:18:06.670Z,76.46
2024-03-05T06:20:33.515Z,76.53
2024-03-05T06:23:01.399Z,75.98
2024-03-05T06:25:28.391Z,76.41
2024-03-05T06:27:55.444Z,76.40
2024-03-05T06:30:23.328Z,76.34
2024-03-05T06:32:51.890Z,76.31
2024-03-05T06:35:22.965Z,76.33
2024-03-05T06:37:50.733Z,76.23
2024-03-05T06:40:23.627Z,76.50
2024-03-05T06:42:53.809Z,76.60
2024-03-05T06:45:28.165Z,76.41
2024-03-05T06:48:10.420Z,76.40
2024-03-05T06:50:42.806Z,76.52
2024-03-05T06:53:29.671Z,76.29
2024-03-05T06:56:16.201Z,76.08
2024-03-05T06:58:45.210Z,76.37
2024-03-05T07:01:13.975Z,76.41
2024-03-05T07:03:42.795Z,76.42
2024-03-05T07:06:15.817Z,76.30
2024-03-05T07:08:44.921Z,76.11
2024-03-05T07:11:13.699Z,76.18
2024-03-05T07:13:44.953Z,76.23
2024-03-05T07:16:16.517Z,76.21
2024-03-05T07:18:44.634Z,76.19
2024-03-05T07:21:11.813Z,76.10
2024-03-05T07:23:40.286Z,76.20
2024-03-05T07:26:07.823Z,76.35
2024-03-05T07:28:34.755Z,76.54
2024-03-05T07:31:02.462Z,76.49
2024-03-05T07:33:29.875Z,76.78
2024-03-05T07:35:57.365Z,76.14
2024-03-05T07:38:24.193Z,76.71
2024-03-05T07:40:51.902Z,76.42
2024-03-05T07:43:18.745Z,76.07
2024-03-05T07:45:48.091Z,76.86
2024-03-05T07:48:16.606Z,76.71
2024-03-05T07:50:44.706Z,76.53
2024-03-05T07:53:11.552Z,76.67
2024-03-05T07:55:46.154Z,76.73
2024-03-05T07:58:14.261Z,76.67
2024-03-05T08:00:41.312Z,76.71
2024-03-05T08:03:08.293Z,77.11
2024-03-05T08:05:35.318Z,76.73
2024-03-05T08:08:02.487Z,76.77
2024-03-05T08:10:29.662Z,77.23
2024-03-05T08:12:57.466Z,77.23
2024-03-05T08:15:25.322Z,77.18
2024-03-05T08:17:53.653Z,77.10
2024-03-05T08:20:24.568Z,77.33
2024-03-05T08:22:51.610Z,77.01
2024-03-05T08:25:19.671Z,77.25
2024-03-05T08:27:48.132Z,77.00
2024-03-05T08:30:18.073Z,76.97
2024-03-05T08:32:45.074Z,77.69
2024-03-05T08:35:12.369Z,77.03
2024-03-05T08:37:41.266Z,77.22
2024-03-05T08:40:16.311Z,76.82
2024-03-05T08:42:44.711Z,77.57
2024-03-05T08:45:13.149Z,77.38
2024-03-05T08:47:43.327Z,77.34
2024-03-05T08:50:11.786Z,77.04
2024-03-05T08:52:39.255Z,77.42
2024-03-05T08:55:08.725Z,77.34
2024-03-05T08:57:37.768Z,77.18
2024-03-05T09:00:16.306Z,77.50
2024-03-05T09:02:55.724Z,77.42
2024-03-05T09:05:22.395Z,77.64
2024-03-05T09:07:50.439Z,77.80
2024-03-05T09:10:18.295Z,77.62
2024-03-05T09:12:45.132Z,77.71
2024-03-05T09:15:12.873Z,78.02
2024-03-05T09:17:39.588Z,77.79
2024-03-05T09:20:18.746Z,78.12
2024-03-05T09:22:46.882Z,78.08
2024-03-05T09:25:16.670Z,78.54
2024-03-05T09:27:45.385Z,78.41
2024-03-05T09:30:15.529Z,78.11
2024-03-05T09:32:42.670Z,78.38
2024-03-05T09:35:10.439Z,78.69
2024-03-05T09:37:37.681Z,78.48
2024-03-05T09:40:17.280Z,78.51
2024-03-05T09:42:44.455Z,78.70
2024-03-05T09:45:15.613Z,79.07
2024-03-05T09:47:43.352Z,78.92
2024-03-05T09:50:12.862Z,79.11
2024-03-05T09:52:39.992Z,79.30
2024-03-05T09:55:07.690Z,79.22
2024-03-05T09:57:35.628Z,79.31
2024-03-05T10:00:04.697Z,79.39
2024-03-05T10:02:39.839Z,79.29
2024-03-05T10:05:11.086Z,79.28
2024-03-05T10:07:38.432Z,79.50
2024-03-05T10:10:12.012Z,79.41
2024-03-05T10:12:40.207Z,79.77
2024-03-05T10:15:17.826Z,79.55
2024-03-05T10:17:45.766Z,79.65
2024-03-05T10:20:25.780Z,79.84
2024-03-05T10:22:54.116Z,79.70
2024-03-05T10:25:23.269Z,79.66
2024-03-05T10:27:51.462Z,79.91
2024-03-05T10:30:38.070Z,79.84
2024-03-05T10:33:10.405Z,79.78
2024-03-05T10:35:38.582Z,79.94
2024-03-05T10:38:08.844Z,80.13
2024-03-05T10:40:36.866Z,79.90
2024-03-05T10:43:05.918Z,80.13
2024-03-05T10:45:40.637Z,80.50
2024-03-05T10:48:08.341Z,80.46
2024-03-05T10:50:40.265Z,80.49
2024-03-05T10:53:10.919Z,80.56
2024-03-05T10:55:39.243Z,80.57
2024-03-05T10:58:12.044Z,80.82
2024-03-05T11:00:40.057Z,80.74
2024-03-05T11:03:11.692Z,81.05
2024-03-05T11:05:48.031Z,80.93
2024-03-05T11:08:18.595Z,81.12
2024-03-05T11:10:51.943Z,81.24
2024-03-05T11:13:20.421Z,81.59
2024-03-05T11:15:49.772Z,81.06
2024-03-05T11:18:31.987Z,81.42
2024-03-05T11:21:13.240Z,81.41
2024-03-05T11:23:54.737Z,81.57
2024-03-05T11:26:22.987Z,81.74
2024-03-05T11:28:55.933Z,81.73
2024-03-05T11:31:28.229Z,81.93
2024-03-05T11:34:04.370Z,81.96
2024-03-05T11:36:37.056Z,82.03
2024-03-05T11:39:08.880Z,82.17
2024-03-05T11:41:43.564Z,82.57
2024-03-05T11:44:41.895Z,82.43
2024-03-05T11:47:08.753Z,82.62
2024-03-05T11:49:37.355Z,82.72
2024-03-05T11:52:05.090Z,82.98
2024-03-05T11:54:36.354Z,82.67
2024-03-05T11:57:04.202Z,83.08
2024-03-05T11:59:50.883Z,82.83
2024-03-05T12:02:17.900Z,82.81
2024-03-05T12:04:48.199Z,82.98
2024-03-05T12:07:15.221Z,82.92
2024-03-05T12:09:42.263Z,82.90
2024-03-05T12:12:11.551Z,82.86
2024-03-05T12:14:55.382Z,83.36
2024-03-05T12:17:24.636Z,83.50
2024-03-05T12:19:59.901Z,83.31
2024-03-05T12:22:27.046Z,83.74
2024-03-05T12:24:53.997Z,83.72
2024-03-05T12:27:21.420Z,83.83
2024-03-05T12:29:48.458Z,83.78
2024-03-05T12:32:18.979Z,83.94
2024-03-05T12:34:48.530Z,84.18
2024-03-05T12:37:16.892Z,84.09
2024-03-05T12:39:43.589Z,84.09
2024-03-05T12:42:14.001Z,83.96
2024-03-05T12:44:41.194Z,84.19
2024-03-05T12:47:13.320Z,84.15
2024-03-05T12:49:47.307Z,84.07
2024-03-05T12:52:19.814Z,84.45
2024-03-05T12:54:47.777Z,84.44
2024-03-05T12:57:29.003Z,84.38
2024-03-05T13:00:06.764Z,84.25
2024-03-05T13:02:33.809Z,84.60
2024-03-05T13:05:01.555Z,84.15
2024-03-05T13:07:28.953Z,84.48
2024-03-05T13:09:55.722Z,84.67
2024-03-05T13:12:24.033Z,84.87
2024-03-05T13:14:51.113Z,84.89
2024-03-05T13:17:18.574Z,84.84
2024-03-05T13:19:45.797Z,84.68
2024-03-05T13:22:12.634Z,84.77
2024-03-05T13:24:39.963Z,84.96
2024-03-05T13:27:07.707Z,84.83
2024-03-05T13:29:36.249Z,85.02
2024-03-05T13:32:03.385Z,84.98
2024-03-05T13:34:30.454Z,84.77
2024-03-05T13:36:58.046Z,84.98
2024-03-05T13:39:24.918Z,85.05
2024-03-05T13:41:55.383Z,85.08
2024-03-05T13:44:22.840Z,85.18
2024-03-05T13:46:50.856Z,85.07
2024-03-05T13:49:20.156Z,85.39
2024-03-05T13:51:47.398Z,85.33
2024-03-05T13:54:14.307Z,85.21
2024-03-05T13:56:43.311Z,85.49
2024-03-05T13:59:14.148Z,85.49
2024-03-05T14:01:43.927Z,85.33
2024-03-05T14:04:11.280Z,85.22
2024-03-05T14:06:41.600Z,85.42
2024-03-05T14:09:11.693Z,85.59
2024-03-05T14:11:41.678Z,85.55
2024-03-05T14:14:09.614Z,85.73
2024-03-05T14:16:39.063Z,85.29
2024-03-05T14:19:06.378Z,85.56
2024-03-05T14:21:36.369Z,85.81
2024-03-05T14:24:03.717Z,85.89
2024-03-05T14:26:31.523Z,85.80
2024-03-05T14:28:58.832Z,85.30
2024-03-05T14:31:25.792Z,85.69
2024-03-05T14:33:52.839Z,85.87
2024-03-05T14:36:21.809Z,85.91
2024-03-05T14:38:49.414Z,85.82
2024-03-05T14:41:17.361Z,85.97
2024-03-05T14:43:46.484Z,86.06
2024-03-05T14:46:13.841Z,86.00
2024-03-05T14:48:42.516Z,85.97
2024-03-05T14:51:11.816Z,86.09
2024-03-05T14:53:39.562Z,86.06
2024-03-05T14:56:07.400Z,86.44
2024-03-05T14:58:34.338Z,86.39
2024-03-05T15:01:01.550Z,86.39
2024-03-05T15:03:28.822Z,86.19
2024-03-05T15:05:57.336Z,86.44
2024-03-05T15:08:24.342Z,86.45
2024-03-05T15:10:51.252Z,86.53
2024-03-05T15:13:18.294Z,86.35
2024-03-05T15:15:45.656Z,86.53
2024-03-05T15:18:15.122Z,86.53
2024-03-05T15:20:42.269Z,86.63
2024-03-05T15:23:11.141Z,86.37
2024-03-05T15:25:38.022Z,86.55
2024-03-05T15:28:07.862Z,86.61
2024-03-05T15:30:35.905Z,86.60
2024-03-05T15:33:04.475Z,86.76
2024-03-05T15:35:31.690Z,86.79
2024-03-05T15:37:59.175Z,87.07
2024-03-05T15:40:27.095Z,86.86
2024-03-05T15:42:58.777Z,86.76
2024-03-05T15:45:28.711Z,86.96
2024-03-05T15:47:56.712Z,87.03
2024-03-05T15:50:25.339Z,86.88
2024-03-05T15:52:57.585Z,86.97
2024-03-05T15:55:28.399Z,87.00
2024-03-05T15:58:03.322Z,87.07
2024-03-05T16:00:36.759Z,86.81
2024-03-05T16:03:06.485Z,86.71
2024-03-05T16:05:43.569Z,87.17
2024-03-05T16:08:21.310Z,87.56
2024-03-05T16:10:49.588Z,87.27
2024-03-05T16:13:16.951Z,87.29
2024-03-05T16:15:46.981Z,87.62
2024-03-05T16:18:15.191Z,87.45
2024-03-05T16:20:42.560Z,87.61
2024-03-05T16:23:09.863Z,87.44
2024-03-05T16:25:41.721Z,87.62
2024-03-05T16:28:10.095Z,87.78
2024-03-05T16:30:38.317Z,87.54
2024-03-05T16:33:08.772Z,87.54
2024-03-05T16:35:44.922Z,87.77
2024-03-05T16:38:14.727Z,87.86
2024-03-05T16:40:42.614Z,87.88
2024-03-05T16:43:10.132Z,88.04
2024-03-05T16:45:37.563Z,87.84
2024-03-05T16:48:09.036Z,88.02
2024-03-05T16:50:36.702Z,88.08
2024-03-05T16:53:06.427Z,88.13
2024-03-05T16:55:33.532Z,87.95
2024-03-05T16:58:01.115Z,88.09
2024-03-05T17:00:31.301Z,88.17
2024-03-05T17:03:08.195Z,88.19
2024-03-05T17:05:37.776Z,88.25
2024-03-05T17:08:07.116Z,88.39
2024-03-05T17:10:34.746Z,88.38
2024-03-05T17:13:04.725Z,88.19
2024-03-05T17:15:39.134Z,88.37
2024-03-05T17:18:07.606Z,88.51
2024-03-05T17:20:34.952Z,88.43
2024-03-05T17:23:06.763Z,88.45
2024-03-05T17:25:38.701Z,88.59
2024-03-05T17:28:09.042Z,88.61
2024-03-05T17:30:38.419Z,88.58
2024-03-05T17:33:11.705Z,88.44
2024-03-05T17:35:41.055Z,88.54
2024-03-05T17:38:10.358Z,88.67
2024-03-05T17:40:37.415Z,88.70
2024-03-05T17:43:04.554Z,88.97
2024-03-05T17:45:32.388Z,88.79
2024-03-05T17:48:05.309Z,88.61
2024-03-05T17:50:37.528Z,88.72
2024-03-05T17:53:05.123Z,88.79
2024-03-05T17:55:32.468Z,88.79
2024-03-05T17:57:59.389Z,88.72
2024-03-05T18:00:26.545Z,88.77
2024-03-05T18:02:55.379Z,88.74
2024-03-05T18:05:30.241Z,89.04
2024-03-05T18:07:57.161Z,89.09
2024-03-05T18:10:25.159Z,89.16
2024-03-05T18:12:53.285Z,89.15
2024-03-05T18:15:21.649Z,89.15
2024-03-05T18:17:51.219Z,89.17
2024-03-05T18:20:21.811Z,89.13
2024-03-05T18:22:49.918Z,89.17
2024-03-05T18:25:18.461Z,89.01
2024-03-05T18:27:54.981Z,89.18
2024-03-05T18:30:25.413Z,89.04
2024-03-05T18:32:53.493Z,89.22
2024-03-05T18:35:26.761Z,89.42
2024-03-05T18:37:55.344Z,89.11
2024-03-05T18:40:23.486Z,89.09
2024-03-05T18:42:52.316Z,89.53
2024-03-05T18:45:20.777Z,88.96
2024-03-05T18:47:59.137Z,89.17
2024-03-05T18:50:32.389Z,89.34
2024-03-05T18:53:00.634Z,89.16
2024-03-05T18:55:30.118Z,89.31
2024-03-05T18:57:57.224Z,89.45
2024-03-05T19:00:24.208Z,89.27
2024-03-05T19:02:54.342Z,89.33
2024-03-05T19:05:22.528Z,89.39
2024-03-05T19:07:50.517Z,89.31
2024-03-05T19:10:19.336Z,89.43
2024-03-05T19:12:47.515Z,89.45
2024-03-05T19:15:17.704Z,89.50
2024-03-05T19:17:47.850Z,89.47
2024-03-05T19:20:16.542Z,89.50
2024-03-05T19:22:43.664Z,89.59
2024-03-05T19:25:13.630Z,89.53
2024-03-05T19:27:41.647Z,89.68
2024-03-05T19:30:10.933Z,89.59
2024-03-05T19:32:42.183Z,89.70
2024-03-05T19:35:11.273Z,89.61
2024-03-05T19:37:41.748Z,89.80
2024-03-05T19:40:16.005Z,89.77
2024-03-05T19:42:44.845Z,89.74
2024-03-05T19:45:12.326Z,89.75
2024-03-05T19:47:39.408Z,89.97
2024-03-05T19:50:07.239Z,89.80
2024-03-05T19:52:38.947Z,89.69
2024-03-05T19:55:07.429Z,89.92
2024-03-05T19:57:34.479Z,89.90
2024-03-05T20:00:03.257Z,89.97
2024-03-05T20:02:39.796Z,89.95
2024-03-05T20:05:07.208Z,90.00
2024-03-05T20:07:34.559Z,90.16
2024-03-05T20:10:02.240Z,90.06
2024-03-05T20:12:29.878Z,90.33
2024-03-05T20:14:56.703Z,90.27
2024-03-05T20:17:25.549Z,90.38
2024-03-05T20:19:54.438Z,90.30
2024-03-05T20:22:24.917Z,90.57
2024-03-05T20:24:58.730Z,90.56
2024-03-05T20:27:27.738Z,90.68
2024-03-05T20:29:57.834Z,90.62
2024-03-05T20:32:31.056Z,90.59
2024-03-05T20:34:59.767Z,90.63
2024-03-05T20:37:27.172Z,90.80
2024-03-05T20:39:56.742Z,90.82
2024-03-05T20:42:23.580Z,90.67
2024-03-05T20:44:50.490Z,90.80
2024-03-05T20:47:17.748Z,90.86
2024-03-05T20:49:46.193Z,91.19
2024-03-05T20:52:13.525Z,91.19
2024-03-05T20:54:40.703Z,91.38
2024-03-05T20:57:07.867Z,91.36
2024-03-05T20:59:34.928Z,91.43
2024-03-05T21:02:10.569Z,91.47
2024-03-05T21:04:39.573Z,91.72
2024-03-05T21:07:37.339Z,91.53
2024-03-05T21:13:48.987Z,91.72
2024-03-05T21:16:15.941Z,91.82
2024-03-05T21:18:42.795Z,91.92
2024-03-05T21:21:14.164Z,92.13
2024-03-05T21:23:42.054Z,91.99
2024-03-05T21:26:20.407Z,91.94
2024-03-05T21:28:55.634Z,91.97
2024-03-05T21:31:22.444Z,92.20
2024-03-05T21:33:49.993Z,92.20
2024-03-05T21:36:17.422Z,92.51
2024-03-05T21:38:45.517Z,92.61
2024-03-05T21:41:13.141Z,92.77
2024-03-05T21:43:40.234Z,92.70
2024-03-05T21:46:06.951Z,92.50
2024-03-05T21:48:34.558Z,92.71
2024-03-05T21:51:06.732Z,92.98
2024-03-05T21:53:39.851Z,92.83
2024-03-05T21:56:07.129Z,92.72
2024-03-05T21:58:34.246Z,92.87
2024-03-05T22:01:02.247Z,93.10
2024-03-05T22:03:29.733Z,92.98
2024-03-05T22:06:02.097Z,93.16
2024-03-05T22:08:32.486Z,93.34
2024-03-05T22:10:59.309Z,93.26
2024-03-05T22:13:28.470Z,93.20
2024-03-05T22:15:55.769Z,93.29
2024-03-05T22:18:22.480Z,93.51
2024-03-05T22:20:51.000Z,93.26
2024-03-05T22:23:17.724Z,93.25
2024-03-05T22:25:46.443Z,93.32
2024-03-05T22:28:15.207Z,93.19
2024-03-05T22:30:43.020Z,93.23
2024-03-05T22:33:11.250Z,93.23
2024-03-05T22:35:38.669Z,93.30
2024-03-05T22:38:05.974Z,93.37
2024-03-05T22:40:32.547Z,93.32
2024-03-05T22:42:59.313Z,93.16
2024-03-05T22:45:28.257Z,93.14
2024-03-05T22:47:54.964Z,93.22
2024-03-05T22:50:21.926Z,93.37
2024-03-05T22:52:51.391Z,93.51
2024-03-05T22:55:18.115Z,93.29
2024-03-05T22:57:44.758Z,93.13
2024-03-05T23:00:25.423Z,93.04
2024-03-05T23:02:52.973Z,93.24
2024-03-05T23:05:20.487Z,93.37
2024-03-05T23:07:48.813Z,92.99
2024-03-05T23:10:16.949Z,93.26
2024-03-05T23:12:45.044Z,93.22
2024-03-05T23:15:16.099Z,93.40
2024-03-05T23:17:43.937Z,93.21
2024-03-05T23:20:11.911Z,93.35
2024-03-05T23:22:39.528Z,93.42
2024-03-05T23:25:10.727Z,93.46
2024-03-05T23:27:37.654Z,93.19
2024-03-05T23:30:04.795Z,93.43
2024-03-05T23:32:32.448Z,93.56
2024-03-05T23:34:59.886Z,93.58
2024-03-05T23:37:26.766Z,93.73
2024-03-05T23:39:54.332Z,93.32
2024-03-05T23:42:21.131Z,93.71
2024-03-05T23:44:47.930Z,93.37
2024-03-05T23:47:15.024Z,93.34
2024-03-05T23:49:41.785Z,93.62
2024-03-05T23:52:09.354Z,93.57
2024-03-05T23:54:36.075Z,93.77
2024-03-05T23:57:03.251Z,93.88
2024-03-05T23:59:29.857Z,93.87
